Latest Weather Observations for New May Downs

IDQ60801

Issued at 6:52 pm EST Sunday 29 March 2020 (issued every 10 minutes, with the page automatically refreshed every 10 minutes)

About weather observations | Map of weather stations | Latest weather observations for QLD | Other Formats
Station Details ID: 037059 Name: NEW MAY DOWNS Lat: -20.59 Lon: 139.34 Height: 392.0 m
Data from the previous 72 hours. | See also: Recent months at New May Downs
Date/Time
EST
Temp
°C
App
Temp
°C
Dew
Point
°C
Rel
Hum
%
Delta-T
°C
Wind Press
QNH
hPa
Press
MSL
hPa
Rain since
9am
mm
Dir  Spd
km/h
Gust
km/h
Spd
kts
Gust
kts
29/06:30pm 32.5 31.2 11.1 27 12.7 E 9 13 5 7 - - 0.0
29/06:00pm 33.7 31.9 10.9 25 13.5 E 11 17 6 9 - - 0.0
29/05:30pm 34.3 33.0 11.4 25 13.7 ENE 9 17 5 9 - - 0.0
29/05:00pm 34.5 32.7 11.0 24 14.0 E 11 19 6 10 - - 0.0
29/04:30pm 34.9 32.8 11.3 24 14.1 E 13 19 7 10 - - 0.0
29/04:00pm 35.2 32.5 10.3 22 14.7 E 15 20 8 11 - - 0.0
29/03:30pm 34.9 33.2 11.3 24 14.1 E 11 17 6 9 - - 0.0
29/03:00pm 35.2 33.2 11.6 24 14.2 E 13 22 7 12 - - 0.0
29/02:30pm 35.1 33.1 12.7 26 13.7 ESE 15 24 8 13 - - 0.0
29/02:00pm 34.7 33.6 13.0 27 13.3 E 11 24 6 13 - - 0.0
29/01:30pm 34.2 33.5 13.1 28 12.9 E 9 15 5 8 - - 0.0
29/01:00pm 33.8 34.2 14.8 32 11.9 SE 6 13 3 7 - - 0.0
29/12:30pm 32.8 32.3 14.9 34 11.2 NE 11 19 6 10 - - 0.0
29/12:00pm 33.3 33.1 16.6 36 10.7 NE 13 20 7 11 - - 0.0
29/11:30am 31.9 31.9 16.2 38 10.0 NNE 11 19 6 10 - - 0.0
29/11:00am 31.2 29.9 16.8 42 9.2 NE 19 24 10 13 - - 0.0
29/10:30am 30.7 30.2 17.0 43 8.8 NNE 15 24 8 13 - - 0.0
29/10:00am 29.8 28.7 17.3 47 8.0 NNE 19 24 10 13 - - 0.0
29/09:30am 28.7 26.6 17.2 49 7.3 NE 24 32 13 17 - - 0.0
29/09:00am 28.6 27.6 17.5 51 7.1 NE 19 28 10 15 - - 0.0
29/08:30am 27.7 26.8 16.9 51 6.8 NE 17 28 9 15 - - 0.0
29/08:00am 26.9 25.9 16.5 53 6.5 NE 17 28 9 15 - - 0.0
29/07:30am 26.0 24.9 16.3 55 6.1 NE 17 24 9 13 - - 0.0
29/07:00am 25.1 24.2 14.9 53 6.2 ENE 13 20 7 11 - - 0.0
29/06:30am 24.7 23.8 13.6 50 6.6 ENE 11 19 6 10 - - 0.0
29/06:00am 24.4 23.4 13.3 50 6.6 ENE 11 13 6 7 - - 0.0
29/05:30am 24.2 23.6 13.4 51 6.4 ENE 9 11 5 6 - - 0.0
29/05:00am 24.9 24.5 13.1 48 7.0 E 7 11 4 6 - - 0.0
29/04:30am 24.3 24.1 12.9 49 6.7 ENE 6 7 3 4 - - 0.0
29/04:00am 25.3 25.2 13.2 47 7.2 ENE 6 7 3 4 - - 0.0
29/03:30am 24.8 25.1 13.4 49 6.8 ENE 4 4 2 2 - - 0.0
29/03:00am 25.9 26.1 13.1 45 7.6 ENE 4 6 2 3 - - 0.0
29/02:30am 26.0 25.9 13.2 45 7.6 ENE 6 7 3 4 - - 0.0
29/02:00am 25.9 25.3 13.4 46 7.5 ENE 9 11 5 6 - - 0.0
29/01:30am 25.3 25.4 13.8 49 6.9 ENE 6 7 3 4 - - 0.0
29/01:00am 26.5 26.6 13.9 45 7.6 NE 6 6 3 3 - - 0.0
29/12:30am 26.8 27.3 13.9 45 7.8 ENE 4 6 2 3 - - 0.0
29/12:00am 26.8 26.9 13.9 45 7.8 ENE 6 6 3 3 - - 0.0
 
Date/Time
EST
Temp
°C
App
Temp
°C
Dew
Point
°C
Rel
Hum
%
Delta-T
°C
Wind Press
QNH
hPa
Press
MSL
hPa
Rain since
9am
mm
Dir  Spd
km/h
Gust
km/h
Spd
kts
Gust
kts
28/11:30pm 27.0 27.2 14.1 45 7.8 ENE 6 6 3 3 - - 0.0
28/11:00pm 27.2 27.4 14.2 44 7.9 ENE 6 6 3 3 - - 0.0
28/10:30pm 27.9 28.2 14.5 44 8.2 ENE 6 6 3 3 - - 0.0
28/10:00pm 28.1 28.1 14.3 42 8.4 E 7 7 4 4 - - 0.0
28/09:30pm 28.7 28.9 14.1 40 8.9 E 6 7 3 4 - - 0.0
28/09:00pm 29.1 28.9 13.7 38 9.3 E 7 9 4 5 - - 0.0
28/08:30pm 29.4 28.8 13.6 38 9.6 E 9 11 5 6 - - 0.0
28/08:00pm 30.0 29.7 13.3 36 10.1 ENE 7 9 4 5 - - 0.0
28/07:30pm 30.7 30.1 13.5 35 10.5 E 9 11 5 6 - - 0.0
28/07:00pm 31.1 30.3 12.9 32 11.0 E 9 11 5 6 - - 0.0
28/06:30pm 32.0 31.0 12.3 30 11.8 E 9 13 5 7 - - 0.0
28/06:00pm 33.3 32.5 11.8 27 12.9 ENE 7 11 4 6 - - 0.0
28/05:30pm 33.9 32.0 11.7 26 13.3 E 13 20 7 11 - - 0.0
28/05:00pm 34.6 33.6 11.1 24 14.0 ESE 7 22 4 12 - - 0.0
28/04:30pm 33.9 32.8 9.9 23 14.0 ESE 6 11 3 6 - - 0.0
28/04:00pm 35.3 33.6 9.7 21 15.0 E 9 15 5 8 - - 0.0
28/03:30pm 34.7 32.6 9.9 22 14.5 ENE 11 20 6 11 - - 0.0
28/03:00pm 35.4 32.7 10.4 22 14.8 E 15 24 8 13 - - 0.0
28/02:30pm 35.0 33.6 10.8 23 14.4 ESE 9 17 5 9 - - 0.0
28/02:00pm 34.4 32.1 10.3 23 14.2 ESE 13 22 7 12 - - 0.0
28/01:30pm 35.1 34.4 11.5 24 14.2 NNE 6 15 3 8 - - 0.0
28/01:00pm 34.9 33.1 12.0 25 13.9 E 13 26 7 14 - - 0.0
28/12:30pm 33.7 31.3 11.5 26 13.3 E 15 24 8 13 - - 0.0
28/12:00pm 33.6 31.4 12.0 27 13.0 ENE 15 24 8 13 - - 0.0
28/11:30am 33.0 30.4 12.1 28 12.6 ENE 17 24 9 13 - - 0.0
28/11:00am 32.3 30.3 11.5 28 12.4 E 13 24 7 13 - - 0.0
28/10:30am 31.3 28.8 11.1 29 11.9 ESE 15 22 8 12 - - 0.0
28/10:00am 30.8 28.0 11.2 30 11.5 E 17 24 9 13 - - 0.0
28/09:30am 29.7 27.2 9.8 29 11.4 E 13 20 7 11 - - 0.0
28/09:00am 28.4 26.3 9.6 31 10.7 ESE 11 19 6 10 - - 0.0
28/08:30am 26.6 25.4 10.3 36 9.3 SSE 7 11 4 6 - - 0.0
28/08:00am 24.9 23.5 9.6 38 8.5 SSE 7 9 4 5 - - 0.0
28/07:30am 23.5 22.3 10.2 43 7.4 SSE 7 9 4 5 - - 0.0
28/07:00am 22.9 21.2 10.0 44 7.2 S 9 11 5 6 - - 0.0
28/06:30am 22.2 21.1 10.0 46 6.8 SSW 6 6 3 3 - - 0.0
28/06:00am 22.2 20.9 10.0 46 6.8 S 7 9 4 5 - - 0.0
28/05:30am 22.9 21.6 10.0 44 7.2 S 7 9 4 5 - - 0.0
28/05:00am 23.0 21.4 10.1 44 7.2 S 9 11 5 6 - - 0.0
28/04:30am 22.5 21.2 10.0 45 6.9 SSW 7 9 4 5 - - 0.0
28/04:00am 22.9 21.6 10.0 44 7.2 S 7 9 4 5 - - 0.0
28/03:30am 23.1 21.8 9.8 43 7.4 SSW 7 9 4 5 - - 0.0
28/03:00am 23.2 21.9 9.9 43 7.4 SSW 7 9 4 5 - - 0.0
28/02:30am 23.6 22.4 9.6 41 7.7 SSW 6 7 3 4 - - 0.0
28/02:00am 24.0 22.8 9.6 40 8.0 SSW 6 7 3 4 - - 0.0
28/01:30am 24.6 23.1 9.3 38 8.5 SSW 7 9 4 5 - - 0.0
28/01:00am 25.0 23.5 9.3 37 8.7 SSW 7 9 4 5 - - 0.0
28/12:30am 25.4 23.9 9.3 36 8.9 SSW 7 7 4 4 - - 0.0
28/12:00am 26.1 24.7 9.5 35 9.3 SSW 7 9 4 5 - - 0.0
 
Date/Time
EST
Temp
°C
App
Temp
°C
Dew
Point
°C
Rel
Hum
%
Delta-T
°C
Wind Press
QNH
hPa
Press
MSL
hPa
Rain since
9am
mm
Dir  Spd
km/h
Gust
km/h
Spd
kts
Gust
kts
27/11:30pm 26.6 25.2 9.5 34 9.6 SSW 7 9 4 5 - - 0.0
27/11:00pm 27.2 25.7 9.1 32 10.1 SSW 7 11 4 6 - - 0.0
27/10:30pm 27.9 25.9 8.7 30 10.7 SSW 9 13 5 7 - - 0.0
27/10:00pm 28.5 26.1 8.7 29 11.1 SSW 11 15 6 8 - - 0.0
27/09:30pm 28.9 27.0 9.1 29 11.2 SSW 9 13 5 7 - - 0.0
27/09:00pm 29.3 28.2 9.9 30 11.1 SW 6 7 3 4 - - 0.0
27/08:30pm 30.0 29.5 9.5 28 11.7 S 2 2 1 1 - - 0.0
27/08:00pm 30.7 29.6 10.1 28 11.9 S 6 9 3 5 - - 0.0
27/07:30pm 30.4 29.6 10.9 30 11.4 SE 6 7 3 4 - - 0.0
27/07:00pm 31.8 31.2 10.5 27 12.4 SSW 4 6 2 3 - - 0.0
27/06:30pm 32.8 31.8 10.2 25 13.2 SSW 6 7 3 4 - - 0.0
27/06:00pm 33.0 31.6 9.7 24 13.5 S 7 11 4 6 - - 0.0
27/05:30pm 33.7 32.7 9.0 22 14.2 SSW 4 9 2 5 - - 0.0
27/05:00pm 33.6 32.8 9.6 23 13.9 E 4 6 2 3 - - 0.0
27/04:30pm 33.7 32.0 9.7 23 14.0 S 9 15 5 8 - - 0.0
27/04:00pm 34.0 33.6 9.9 23 14.1 NE 2 7 1 4 - - 0.0
27/03:30pm 33.9 32.0 10.5 24 13.8 ENE 11 19 6 10 - - 0.0
27/03:00pm 34.4 32.6 9.6 22 14.4 S 9 19 5 10 - - 0.0
27/02:30pm 34.2 33.3 10.7 24 13.9 SE 6 15 3 8 - - 0.0
27/02:00pm 33.2 31.3 10.5 25 13.3 SSW 11 24 6 13 - - 0.0
27/01:30pm 34.3 33.4 10.8 24 13.9 ESE 6 19 3 10 - - 0.0
27/01:00pm 34.1 32.8 12.4 26 13.2 E 11 22 6 12 - - 0.0
27/12:30pm 33.4 31.5 11.9 27 12.9 ENE 13 24 7 13 - - 0.0
27/12:00pm 33.1 32.0 13.2 30 12.2 ENE 11 17 6 9 - - 0.0
27/11:30am 32.1 30.2 11.8 29 12.1 NE 13 20 7 11 - - 0.0
27/11:00am 31.3 30.1 11.7 30 11.6 ENE 9 19 5 10 - - 0.0
27/10:30am 29.9 28.0 10.5 30 11.2 ESE 11 15 6 8 - - 0.0
27/10:00am 30.0 27.2 10.0 29 11.5 ESE 15 19 8 10 - - 0.0
27/09:30am 29.2 26.6 9.3 29 11.3 ESE 13 20 7 11 - - 0.0
27/09:00am 28.3 25.8 9.6 31 10.6 ESE 13 17 7 9 - - 0.2
27/08:30am 27.4 25.6 9.3 32 10.2 SE 9 19 5 10 - - 0.2
27/08:00am 25.4 24.6 9.7 37 8.8 ESE 4 6 2 3 - - 0.2
27/07:30am 24.2 23.3 9.4 39 8.2 SSE 4 6 2 3 - - 0.2
27/07:00am 23.0 22.0 9.0 41 7.6 ESE 4 4 2 2 - - 0.2
27/06:30am 22.9 21.1 9.3 42 7.5 SE 9 11 5 6 - - 0.2
27/06:00am 23.3 21.8 9.3 41 7.7 SSE 7 11 4 6 - - 0.2
27/05:30am 23.3 21.8 9.3 41 7.7 SE 7 9 4 5 - - 0.2
27/05:00am 24.1 22.3 9.3 39 8.2 SSE 9 13 5 7 - - 0.2
27/04:30am 24.6 22.3 9.0 37 8.6 SE 11 17 6 9 - - 0.2
27/04:00am 24.9 22.3 9.2 37 8.7 SE 13 17 7 9 - - 0.2
27/03:30am 25.2 23.0 9.5 37 8.7 SE 11 17 6 9 - - 0.2
27/03:00am 25.7 23.3 9.9 37 8.9 SE 13 19 7 10 - - 0.2
27/02:30am 26.4 23.6 10.1 36 9.2 SSE 15 26 8 14 - - 0.2
27/02:00am 26.4 24.6 12.1 41 8.4 SE 13 19 7 10 - - 0.2
27/01:30am 26.3 26.1 14.7 48 7.1 SSE 9 15 5 8 - - 0.2
27/01:00am 26.6 26.6 15.3 50 7.0 SE 9 11 5 6 - - 0.2
27/12:30am 27.1 28.3 15.8 50 7.0 SE 4 6 2 3 - - 0.2
27/12:00am 27.3 29.3 16.9 53 6.6 S 2 4 1 2 - - 0.2
 
Date/Time
EST
Temp
°C
App
Temp
°C
Dew
Point
°C
Rel
Hum
%
Delta-T
°C
Wind Press
QNH
hPa
Press
MSL
hPa
Rain since
9am
mm
Dir  Spd
km/h
Gust
km/h
Spd
kts
Gust
kts
26/11:30pm 27.8 29.0 17.3 52 6.7 S 7 9 4 5 - - 0.2
26/11:00pm 28.2 29.5 17.1 51 7.1 S 6 9 3 5 - - 0.2
26/10:30pm 27.6 29.7 18.9 59 5.7 SSW 6 7 3 4 - - 0.2
26/10:00pm 28.1 30.0 17.6 53 6.7 SE 4 6 2 3 - - 0.2
26/09:30pm 28.1 29.2 16.7 50 7.2 NE 6 9 3 5 - - 0.2
26/09:00pm 29.3 29.9 15.4 42 8.7 N 6 7 3 4 - - 0.2
26/08:30pm 28.1 26.5 16.4 49 7.4 ENE 20 33 11 18 - - 0.2
26/08:00pm 30.6 28.6 13.8 35 10.3 SSE 17 30 9 16 - - 0.0
26/07:30pm 30.7 30.8 13.9 36 10.3 ENE 6 6 3 3 - - 0.0
26/07:00pm 30.8 30.8 13.6 35 10.5 ENE 6 7 3 4 - - 0.0

Other formats

Comma delimited format used in spreadsheet applications
http://www.bom.gov.au/fwo/IDQ60801/IDQ60801.94349.axf

JavaScript Object Notation format (JSON) in row-major order
http://www.bom.gov.au/fwo/IDQ60801/IDQ60801.94349.json

Data quality

Most of these data are generated automatically and are frequently updated. Quality checks on data are not normally performed. It is possible for incorrect values to appear. Refer to information at About Latest Weather Observations and please check the disclaimer before using these data.